Time;durP1;ratioP1;P1;durP2;ratioP2;P2;SDS_P1;SDS_P2;PMS_P1;PMS_P2;Temp;Humidity;BMP_temperature;BMP_pressure;BME280_temperature;BME280_humidity;BME280_pressure;Samples;Min_cycle;Max_cycle;Signal;HPM_P1;HPM_P2
2023/10/13 00:00:29;;;;;;;57.15;33.90;;;;;;;15.00;100.00;100109.47;10436988;28;20105;-77
2023/10/13 00:05:33;;;;;;;56.38;30.20;;;;;;;14.62;100.00;100107.16;10434316;28;20044;-77
2023/10/13 00:10:37;;;;;;;66.63;36.90;;;;;;;15.12;100.00;100101.94;10442495;28;20059;-77
2023/10/13 00:15:46;;;;;;;61.55;35.70;;;;;;;15.09;100.00;100096.00;10437936;28;20052;-77
2023/10/13 00:20:49;;;;;;;64.50;38.88;;;;;;;15.11;100.00;100085.84;10435675;28;20037;-76
2023/10/13 00:25:56;;;;;;;58.50;35.80;;;;;;;15.26;100.00;100079.69;10439758;28;20053;-77
2023/10/13 00:31:05;;;;;;;65.13;40.33;;;;;;;15.21;100.00;100079.31;10439868;28;20055;-76
2023/10/13 00:36:08;;;;;;;63.05;36.58;;;;;;;15.28;100.00;100084.94;10448197;28;20136;-77
2023/10/13 00:41:14;;;;;;;62.30;37.15;;;;;;;15.11;100.00;100083.16;10437569;28;20070;-76
2023/10/13 00:46:20;;;;;;;57.05;35.92;;;;;;;15.29;100.00;100064.13;10440333;28;20057;-77
2023/10/13 00:51:32;;;;;;;52.25;33.53;;;;;;;15.21;100.00;100073.91;10439119;28;20051;-77
2023/10/13 00:56:40;;;;;;;55.63;34.60;;;;;;;15.25;100.00;100074.44;10438571;28;20044;-76
2023/10/13 01:01:45;;;;;;;56.22;34.45;;;;;;;15.42;100.00;100073.53;10444542;28;20121;-75
2023/10/13 01:06:48;;;;;;;50.70;31.85;;;;;;;15.45;100.00;100067.78;10437635;28;20080;-76
2023/10/13 01:11:53;;;;;;;45.35;30.83;;;;;;;15.45;100.00;100058.81;10440591;28;20055;-76
2023/10/13 01:16:58;;;;;;;43.88;28.92;;;;;;;15.30;100.00;100047.72;10432806;28;20586;-77
2023/10/13 01:22:04;;;;;;;43.08;25.83;;;;;;;15.06;100.00;100053.91;10437873;28;20423;-77
2023/10/13 01:27:17;;;;;;;41.95;27.35;;;;;;;15.28;100.00;100047.06;10438644;28;20539;-76
2023/10/13 01:32:22;;;;;;;36.95;28.42;;;;;;;15.47;100.00;100029.75;10441108;28;20131;-76
2023/10/13 01:37:25;;;;;;;44.08;26.85;;;;;;;15.36;100.00;100032.72;10440420;28;20144;-77
2023/10/13 01:42:30;;;;;;;41.15;22.35;;;;;;;15.25;100.00;100029.28;10438922;28;20473;-76
2023/10/13 01:47:33;;;;;;;38.95;25.92;;;;;;;15.40;100.00;100029.53;10434045;28;20052;-77
2023/10/13 01:52:36;;;;;;;44.00;28.83;;;;;;;15.40;100.00;100018.69;10435216;28;20044;-76
2023/10/13 01:57:42;;;;;;;39.00;23.40;;;;;;;15.32;100.00;100009.69;10433918;28;20060;-76
2023/10/13 02:02:45;;;;;;;34.25;23.98;;;;;;;15.34;100.00;100004.97;10430508;28;20616;-77
2023/10/13 02:07:48;;;;;;;40.70;26.27;;;;;;;15.48;100.00;100012.47;10426046;28;20048;-76
2023/10/13 02:12:55;;;;;;;36.05;25.50;;;;;;;15.47;100.00;99998.09;10431867;28;20711;-76
2023/10/13 02:17:59;;;;;;;38.72;23.88;;;;;;;15.57;100.00;99999.81;10430038;28;20045;-76
2023/10/13 02:23:10;;;;;;;38.22;22.17;;;;;;;15.42;100.00;99995.03;10426173;28;21242;-76
2023/10/13 02:28:14;;;;;;;34.88;23.85;;;;;;;15.32;100.00;99996.16;10432452;28;20048;-76
2023/10/13 02:33:21;;;;;;;35.63;24.38;;;;;;;15.42;100.00;99981.50;10429379;28;20048;-77
2023/10/13 02:38:32;;;;;;;30.95;19.48;;;;;;;15.30;100.00;99993.59;10428112;28;20514;-76
2023/10/13 02:43:37;;;;;;;36.65;24.20;;;;;;;15.45;100.00;99975.75;10434901;28;20045;-76
2023/10/13 02:48:41;;;;;;;30.70;22.38;;;;;;;15.47;100.00;99967.47;10429123;28;20044;-76
2023/10/13 02:53:47;;;;;;;31.60;21.83;;;;;;;15.42;100.00;99967.97;10433582;28;20083;-76
2023/10/13 02:58:56;;;;;;;31.63;21.50;;;;;;;15.44;100.00;99960.53;10431957;28;20056;-75
2023/10/13 03:03:59;;;;;;;33.28;23.15;;;;;;;15.50;100.00;99948.19;10434370;28;20060;-75
2023/10/13 03:09:14;;;;;;;33.45;22.55;;;;;;;15.39;100.00;99943.94;10428480;28;20094;-75
2023/10/13 03:14:30;;;;;;;29.73;22.65;;;;;;;15.46;100.00;99941.41;10426761;28;20080;-75
2023/10/13 03:19:34;;;;;;;30.98;21.33;;;;;;;15.46;100.00;99936.84;10422220;28;20060;-75
2023/10/13 03:24:41;;;;;;;28.27;20.65;;;;;;;15.48;100.00;99931.28;10431151;28;20060;-75
2023/10/13 03:29:47;;;;;;;23.08;18.45;;;;;;;15.58;100.00;99920.31;10433139;28;20056;-75
2023/10/13 03:35:06;;;;;;;28.02;18.88;;;;;;;15.60;100.00;99919.09;10425291;28;20058;-75
2023/10/13 03:40:34;;;;;;;27.15;18.52;;;;;;;15.56;100.00;99916.91;10434021;28;20053;-75
2023/10/13 03:45:41;;;;;;;32.08;21.20;;;;;;;15.60;100.00;99910.97;10432819;28;20049;-75
2023/10/13 03:50:48;;;;;;;30.52;20.15;;;;;;;15.63;100.00;99905.25;10423982;28;20049;-75
2023/10/13 03:56:07;;;;;;;28.35;19.75;;;;;;;15.66;100.00;99890.50;10437344;28;20114;-76
2023/10/13 04:01:14;;;;;;;33.45;21.13;;;;;;;15.57;100.00;99895.06;10432943;28;20786;-76
2023/10/13 04:06:18;;;;;;;25.75;19.55;;;;;;;15.65;100.00;99888.81;10436960;28;20708;-76
2023/10/13 04:16:52;;;;;;;30.48;20.50;;;;;;;15.53;100.00;99874.78;10435889;28;20191;-76
2023/10/13 04:21:58;;;;;;;31.10;23.27;;;;;;;15.55;100.00;99863.75;10442667;28;20045;-76
2023/10/13 04:27:29;;;;;;;35.85;23.00;;;;;;;15.63;100.00;99861.94;10433296;28;20818;-76
2023/10/13 04:32:38;;;;;;;27.65;21.23;;;;;;;15.49;100.00;99851.75;10427329;28;20051;-76
2023/10/13 04:37:54;;;;;;;27.33;20.25;;;;;;;15.56;100.00;99849.25;10438364;28;20048;-76
2023/10/13 04:42:57;;;;;;;30.75;19.58;;;;;;;15.66;100.00;99839.06;10436098;28;20574;-76
2023/10/13 04:48:17;;;;;;;28.77;22.02;;;;;;;15.66;100.00;99826.38;10431246;28;20060;-76
2023/10/13 04:53:33;;;;;;;28.42;21.20;;;;;;;15.79;100.00;99830.41;10439305;28;20075;-76
2023/10/13 05:04:21;;;;;;;29.23;20.15;;;;;;;15.64;100.00;99798.63;10428868;28;20083;-77
2023/10/13 05:47:36;;;;;;;21.25;14.00;;;;;;;15.19;100.00;99750.44;10431615;28;20052;-77
2023/10/13 06:30:09;;;;;;;20.25;13.77;;;;;;;15.50;100.00;99699.19;10445394;28;20063;-77
2023/10/13 06:35:18;;;;;;;20.60;13.43;;;;;;;15.41;100.00;99703.78;10448154;28;20690;-77
2023/10/13 06:40:25;;;;;;;24.90;14.55;;;;;;;15.46;100.00;99685.16;10425874;28;20142;-77
2023/10/13 06:45:35;;;;;;;19.25;13.30;;;;;;;15.39;100.00;99694.16;10439509;28;20753;-77
2023/10/13 06:50:41;;;;;;;16.63;11.68;;;;;;;15.47;100.00;99683.31;10446015;28;20123;-78
2023/10/13 06:55:48;;;;;;;22.98;12.70;;;;;;;15.57;100.00;99686.63;10450004;28;20086;-77
2023/10/13 07:00:55;;;;;;;19.08;11.90;;;;;;;15.57;100.00;99674.97;10428628;28;20053;-77
2023/10/13 07:05:59;;;;;;;17.65;12.23;;;;;;;15.53;100.00;99685.31;10438273;28;20178;-76
2023/10/13 07:11:05;;;;;;;15.25;11.23;;;;;;;15.52;100.00;99672.78;10444480;28;20527;-77
2023/10/13 07:16:12;;;;;;;16.17;10.63;;;;;;;15.59;100.00;99681.91;10449494;28;20213;-76
2023/10/13 07:21:31;;;;;;;15.70;11.47;;;;;;;15.56;100.00;99692.25;10423350;28;21278;-76
2023/10/13 07:26:42;;;;;;;18.67;10.25;;;;;;;15.56;100.00;99671.44;10448052;28;20495;-78
2023/10/13 07:31:46;;;;;;;16.50;9.27;;;;;;;15.64;100.00;99659.72;10449405;28;20052;-79
2023/10/13 07:36:49;;;;;;;16.50;9.82;;;;;;;15.75;100.00;99663.94;10457591;28;20059;-79
2023/10/13 07:42:03;;;;;;;14.52;9.38;;;;;;;15.77;100.00;99668.16;10459630;28;20071;-77
2023/10/13 07:47:07;;;;;;;14.68;10.20;;;;;;;16.05;100.00;99673.09;10453510;28;20396;-77
2023/10/13 07:52:23;;;;;;;9.30;7.43;;;;;;;15.78;100.00;99669.81;10462406;28;20051;-77
2023/10/13 07:57:33;;;;;;;10.68;6.78;;;;;;;15.67;100.00;99672.91;10448032;28;20116;-78
2023/10/13 08:02:48;;;;;;;11.25;6.15;;;;;;;15.85;100.00;99669.94;10427079;28;20179;-79
2023/10/13 08:07:53;;;;;;;11.52;6.18;;;;;;;15.98;100.00;99677.53;10460526;28;20044;-77
2023/10/13 08:12:58;;;;;;;15.30;7.10;;;;;;;16.12;100.00;99676.75;10477352;28;20059;-79
2023/10/13 08:18:17;;;;;;;15.57;7.30;;;;;;;16.19;100.00;99663.38;10495067;28;20130;-77
2023/10/13 08:23:34;;;;;;;8.88;6.07;;;;;;;16.24;100.00;99675.34;10475392;28;20673;-78
2023/10/13 08:28:54;;;;;;;6.50;5.55;;;;;;;16.39;100.00;99669.19;10496219;28;20171;-77
2023/10/13 08:34:06;;;;;;;8.15;4.85;;;;;;;16.54;100.00;99668.25;10498782;28;20052;-77
2023/10/13 08:39:57;;;;;;;9.75;5.53;;;;;;;16.94;100.00;99659.94;10486891;28;20426;-77
2023/10/13 08:44:45;;;;;;;8.13;5.00;;;;;;;16.78;100.00;99660.94;10495418;28;20052;-76
2023/10/13 08:49:52;;;;;;;10.38;4.93;;;;;;;16.97;100.00;99652.28;10488349;28;20657;-77
2023/10/13 09:00:38;;;;;;;9.07;4.65;;;;;;;17.38;100.00;99630.19;10489250;28;20129;-78
2023/10/13 09:06:00;;;;;;;10.82;4.82;;;;;;;17.61;100.00;99621.97;10484020;28;20040;-77
2023/10/13 09:11:12;;;;;;;6.80;4.72;;;;;;;17.85;100.00;99606.34;10483934;28;20514;-77
2023/10/13 09:16:22;;;;;;;14.20;5.03;;;;;;;18.36;100.00;99577.25;10488342;28;20047;-77
2023/10/13 09:21:47;;;;;;;8.57;3.95;;;;;;;19.06;98.97;99588.34;10482313;28;20108;-77
2023/10/13 09:26:53;;;;;;;13.90;4.90;;;;;;;19.18;100.00;99559.50;10480345;28;21256;-77
2023/10/13 09:32:03;;;;;;;9.57;5.78;;;;;;;18.96;96.58;99560.63;10485373;28;20131;-76
2023/10/13 09:37:09;;;;;;;10.38;3.92;;;;;;;18.75;100.00;99548.72;10479502;28;20047;-77
2023/10/13 09:42:12;;;;;;;6.40;2.97;;;;;;;19.10;94.33;99523.44;10481022;28;20467;-77
2023/10/13 09:47:29;;;;;;;15.10;4.57;;;;;;;18.76;97.39;99500.63;10489539;28;20047;-76
2023/10/13 09:52:33;;;;;;;9.38;4.45;;;;;;;18.76;97.17;99522.38;10482769;28;20052;-76
2023/10/13 09:57:44;;;;;;;10.88;4.70;;;;;;;18.82;93.28;99526.22;10485271;28;20044;-76
2023/10/13 10:02:49;;;;;;;12.48;4.55;;;;;;;19.23;92.14;99513.47;10483785;28;20044;-76
2023/10/13 10:13:40;;;;;;;11.15;5.07;;;;;;;19.49;84.50;99522.78;10919582;23;20119;-78
2023/10/13 10:18:44;;;;;;;11.88;4.63;;;;;;;19.92;83.54;99494.44;10164178;29;20465;-80
2023/10/13 10:23:53;;;;;;;15.07;5.68;;;;;;;20.19;81.49;99489.88;10168660;29;20048;-80
2023/10/13 10:28:56;;;;;;;14.93;4.63;;;;;;;20.51;76.96;99513.59;10186680;29;20084;-79
2023/10/13 10:34:12;;;;;;;13.20;5.25;;;;;;;20.94;76.84;99499.47;10148746;29;20568;-75
2023/10/13 10:39:19;;;;;;;12.68;5.13;;;;;;;21.54;72.70;99468.41;10113970;29;20579;-75
2023/10/13 10:44:33;;;;;;;12.43;4.30;;;;;;;22.70;67.38;99470.72;10125363;29;20064;-76
2023/10/13 10:49:40;;;;;;;8.68;3.90;;;;;;;22.84;66.12;99462.38;10124261;29;20546;-79
2023/10/13 10:54:44;;;;;;;12.07;5.20;;;;;;;23.05;65.22;99436.44;10108562;29;20115;-78
2023/10/13 10:59:58;;;;;;;18.70;4.95;;;;;;;22.33;66.46;99434.22;10105837;29;20131;-78
2023/10/13 11:05:05;;;;;;;15.35;5.50;;;;;;;21.93;68.23;99437.28;10106037;29;20052;-77
2023/10/13 11:10:12;;;;;;;13.40;5.00;;;;;;;22.69;66.04;99433.47;10108239;29;20063;-77
2023/10/13 11:15:22;;;;;;;15.60;5.00;;;;;;;23.61;61.85;99416.97;10097286;29;20111;-78
2023/10/13 11:20:33;;;;;;;17.70;5.07;;;;;;;24.30;58.06;99389.09;10106613;29;20049;-79
2023/10/13 11:25:37;;;;;;;20.10;5.05;;;;;;;24.54;56.45;99398.16;10116395;29;20051;-78
2023/10/13 11:30:45;;;;;;;15.68;4.85;;;;;;;24.00;57.96;99380.94;10112480;29;20076;-77
2023/10/13 11:35:55;;;;;;;11.90;4.55;;;;;;;23.34;59.42;99385.50;10113943;29;20539;-78
2023/10/13 11:41:11;;;;;;;16.75;4.68;;;;;;;24.12;57.52;99376.28;10102663;29;20625;-77
2023/10/13 11:46:16;;;;;;;17.60;5.55;;;;;;;25.18;53.63;99365.19;10108608;29;20059;-76
2023/10/13 11:51:25;;;;;;;19.95;4.60;;;;;;;24.76;53.80;99347.00;10108705;29;20062;-77
2023/10/13 11:56:28;;;;;;;14.32;5.65;;;;;;;24.48;55.80;99356.03;10121564;29;20048;-77
2023/10/13 12:07:03;;;;;;;17.13;5.07;;;;;;;23.70;56.09;99348.94;10111501;29;20048;-80
2023/10/13 12:12:07;;;;;;;14.95;5.80;;;;;;;22.70;60.19;99333.03;10121958;29;20053;-79
2023/10/13 12:17:11;;;;;;;18.63;4.95;;;;;;;22.92;58.58;99319.69;10107015;29;20048;-78
2023/10/13 12:22:25;;;;;;;14.18;5.20;;;;;;;22.87;57.70;99322.28;10138436;29;20108;-79
2023/10/13 12:27:35;;;;;;;14.18;4.97;;;;;;;22.75;58.01;99308.53;10120806;29;20040;-78
2023/10/13 12:32:44;;;;;;;17.10;6.45;;;;;;;22.42;59.42;99287.03;10134553;28;20063;-78
2023/10/13 12:37:51;;;;;;;13.95;6.28;;;;;;;22.55;59.73;99289.66;10130569;29;20055;-78
2023/10/13 12:53:36;;;;;;;12.45;5.43;;;;;;;26.03;49.20;99259.72;10137984;29;21278;-77
2023/10/13 12:58:39;;;;;;;18.77;4.95;;;;;;;24.39;53.11;99266.06;10136503;29;20052;-76
2023/10/13 13:03:44;;;;;;;15.73;6.38;;;;;;;24.58;54.27;99264.84;10145928;29;20040;-77
2023/10/13 13:08:48;;;;;;;15.95;5.32;;;;;;;25.46;50.44;99248.91;10160259;29;20063;-77
2023/10/13 13:13:52;;;;;;;13.32;5.40;;;;;;;25.87;50.26;99232.25;10168472;28;20495;-78
2023/10/13 13:18:55;;;;;;;17.00;6.60;;;;;;;25.31;51.81;99235.72;10144746;29;20055;-78
2023/10/13 13:24:01;;;;;;;20.00;5.30;;;;;;;26.05;49.47;99226.41;10148414;29;20049;-79
2023/10/13 13:29:04;;;;;;;16.58;6.15;;;;;;;25.34;50.71;99217.91;10143849;29;20059;-79
2023/10/13 13:34:09;;;;;;;14.48;4.93;;;;;;;23.51;55.68;99222.09;10150472;29;21193;-78
2023/10/13 13:39:17;;;;;;;15.90;5.82;;;;;;;23.56;54.94;99205.78;10132406;29;20063;-78
2023/10/13 13:44:20;;;;;;;13.73;5.38;;;;;;;23.30;54.95;99189.81;10123043;29;20052;-77
2023/10/13 13:49:29;;;;;;;16.13;4.60;;;;;;;25.25;48.26;99217.50;10128531;29;20048;-77
2023/10/13 13:54:34;;;;;;;13.35;5.35;;;;;;;23.33;52.95;99192.06;10130771;29;20059;-78
2023/10/13 13:59:37;;;;;;;13.45;5.78;;;;;;;24.82;50.45;99183.22;10128320;29;20064;-77
2023/10/13 14:04:40;;;;;;;14.13;4.65;;;;;;;24.45;48.93;99178.13;10115034;29;20052;-78
2023/10/13 14:09:44;;;;;;;14.40;5.38;;;;;;;23.10;52.67;99181.91;10149360;29;20063;-78
2023/10/13 14:14:51;;;;;;;15.60;5.85;;;;;;;22.38;54.90;99165.44;10121772;29;20056;-76
2023/10/13 14:19:54;;;;;;;20.27;7.15;;;;;;;23.32;52.73;99204.94;10133263;29;20048;-78
2023/10/13 14:25:08;;;;;;;16.30;6.53;;;;;;;23.06;53.86;99184.25;10133570;29;20135;-77
2023/10/13 14:30:19;;;;;;;14.35;5.25;;;;;;;22.21;54.90;99204.38;10127770;29;20051;-78
2023/10/13 14:35:22;;;;;;;21.35;6.63;;;;;;;22.23;55.75;99183.09;10133371;29;20448;-78
2023/10/13 14:40:26;;;;;;;11.23;4.35;;;;;;;22.41;54.62;99182.25;10118792;29;20157;-77
2023/10/13 14:45:29;;;;;;;12.88;5.07;;;;;;;22.28;55.22;99176.94;10138425;29;20056;-78
2023/10/13 14:50:33;;;;;;;22.17;6.88;;;;;;;22.40;54.91;99172.34;10123178;29;20048;-78
2023/10/13 14:55:39;;;;;;;8.52;4.45;;;;;;;22.08;54.44;99175.31;10111647;29;20049;-79
2023/10/13 15:00:45;;;;;;;21.55;6.00;;;;;;;22.15;54.95;99177.13;10114395;29;20064;-80
2023/10/13 15:05:48;;;;;;;16.60;5.50;;;;;;;22.04;54.08;99173.25;10126663;29;20154;-78
2023/10/13 15:10:52;;;;;;;20.27;4.78;;;;;;;22.03;54.17;99190.72;10122439;29;20423;-77
2023/10/13 15:15:55;;;;;;;13.15;4.50;;;;;;;22.04;53.81;99181.44;10127960;29;20567;-77
2023/10/13 15:20:58;;;;;;;11.68;5.00;;;;;;;21.86;54.54;99164.00;10152068;29;20078;-78
2023/10/13 15:26:09;;;;;;;23.08;6.05;;;;;;;21.98;54.75;99172.25;10136240;29;20058;-78
2023/10/13 15:31:22;;;;;;;23.17;6.90;;;;;;;21.68;54.56;99189.38;10128984;29;20047;-78
2023/10/13 15:36:27;;;;;;;17.30;5.68;;;;;;;21.87;54.44;99176.59;10138989;29;20048;-78
2023/10/13 15:41:33;;;;;;;15.07;5.32;;;;;;;21.85;54.88;99159.56;10137485;29;20055;-78
2023/10/13 15:46:37;;;;;;;20.38;4.80;;;;;;;21.76;54.43;99171.88;10131093;29;20051;-79
2023/10/13 15:51:59;;;;;;;20.20;5.90;;;;;;;21.86;54.83;99157.69;10139267;29;20106;-79
2023/10/13 15:57:06;;;;;;;22.88;6.30;;;;;;;21.79;55.34;99162.41;10121010;29;20055;-78
2023/10/13 16:02:11;;;;;;;20.77;6.35;;;;;;;21.68;55.25;99153.03;10134336;29;20559;-78
2023/10/13 16:07:17;;;;;;;17.85;5.82;;;;;;;21.71;54.98;99149.81;10131160;29;20080;-78
2023/10/13 16:12:22;;;;;;;16.75;6.07;;;;;;;21.34;55.67;99143.50;10125375;29;20049;-78
2023/10/13 16:17:26;;;;;;;14.82;5.07;;;;;;;21.22;55.48;99146.13;10139248;29;20103;-78
2023/10/13 16:22:32;;;;;;;21.77;5.65;;;;;;;21.41;56.13;99158.75;10109453;29;20056;-76
2023/10/13 16:27:39;;;;;;;17.58;5.97;;;;;;;21.27;56.46;99168.13;10142357;28;20047;-77
2023/10/13 16:32:45;;;;;;;16.13;6.28;;;;;;;21.38;56.84;99175.59;10125833;29;20052;-77
2023/10/13 16:37:51;;;;;;;16.13;4.78;;;;;;;21.17;56.47;99165.06;10153187;29;20056;-79
2023/10/13 16:42:55;;;;;;;19.40;5.10;;;;;;;20.90;57.71;99183.50;10139523;29;20044;-78
2023/10/13 16:47:59;;;;;;;17.50;5.35;;;;;;;21.16;56.71;99185.25;10130525;29;20064;-77
2023/10/13 16:53:04;;;;;;;13.63;4.68;;;;;;;21.03;57.24;99161.56;10142616;29;20146;-79
2023/10/13 16:58:11;;;;;;;15.23;6.05;;;;;;;20.95;57.86;99154.53;10142049;29;20515;-78
2023/10/13 17:03:15;;;;;;;20.63;5.57;;;;;;;21.22;57.11;99157.03;10139670;29;20149;-79
2023/10/13 17:08:18;;;;;;;14.63;6.90;;;;;;;21.07;57.65;99156.56;10144081;29;20787;-80
2023/10/13 17:13:25;;;;;;;16.45;6.28;;;;;;;21.20;57.81;99165.47;10136002;29;20059;-79
2023/10/13 17:18:28;;;;;;;16.77;5.03;;;;;;;21.16;58.11;99171.59;10134970;29;20063;-78
2023/10/13 17:23:34;;;;;;;11.95;5.70;;;;;;;20.95;59.01;99175.50;10140421;29;20735;-78
2023/10/13 17:28:38;;;;;;;14.98;5.07;;;;;;;21.01;58.44;99155.53;10134876;29;20055;-78
2023/10/13 17:33:42;;;;;;;19.02;7.03;;;;;;;20.90;59.19;99164.41;10120664;29;20049;-78
2023/10/13 17:38:45;;;;;;;15.88;6.53;;;;;;;20.87;60.02;99162.97;10126750;29;20055;-79
2023/10/13 17:43:49;;;;;;;13.05;4.13;;;;;;;20.52;61.36;99155.22;10129600;29;20052;-79
2023/10/13 17:48:55;;;;;;;20.38;6.03;;;;;;;20.24;66.18;99157.44;10158391;29;20066;-79
2023/10/13 17:53:59;;;;;;;18.88;5.60;;;;;;;19.54;68.19;99168.13;10137982;29;20680;-78
2023/10/13 17:59:04;;;;;;;17.90;5.20;;;;;;;19.35;69.98;99151.59;10125609;29;20767;-78
2023/10/13 18:04:09;;;;;;;18.92;5.82;;;;;;;18.92;72.09;99130.28;10133739;29;20063;-78
2023/10/13 18:09:17;;;;;;;16.33;6.03;;;;;;;18.80;74.39;99115.63;10153097;29;20056;-78
2023/10/13 18:14:21;;;;;;;15.20;6.70;;;;;;;18.66;73.78;99105.78;10150983;29;20083;-79
2023/10/13 18:19:27;;;;;;;21.25;6.75;;;;;;;18.69;73.98;99108.91;10146375;29;20059;-78
2023/10/13 18:24:30;;;;;;;20.23;6.22;;;;;;;18.28;76.09;99093.56;10134623;29;20044;-78
2023/10/13 18:29:36;;;;;;;19.05;5.93;;;;;;;18.31;74.35;99082.28;10162099;28;20063;-78
2023/10/13 18:34:42;;;;;;;16.73;6.28;;;;;;;18.62;72.12;99085.47;10122863;29;20246;-78
2023/10/13 18:39:47;;;;;;;15.88;6.10;;;;;;;18.71;70.81;99084.22;10139151;29;20515;-79
2023/10/13 18:44:56;;;;;;;16.05;5.68;;;;;;;19.04;69.19;99072.53;10136758;29;20086;-79
2023/10/13 18:49:59;;;;;;;15.98;5.80;;;;;;;19.25;68.50;99080.41;10136930;29;20060;-77
2023/10/13 18:55:05;;;;;;;14.63;6.10;;;;;;;19.00;68.63;99082.97;10146071;29;20056;-78
2023/10/13 19:00:14;;;;;;;15.07;5.45;;;;;;;19.17;68.79;99067.91;10131554;29;20055;-78
2023/10/13 19:05:17;;;;;;;17.73;5.57;;;;;;;18.77;70.61;99073.34;10143593;29;20075;-78
2023/10/13 19:10:20;;;;;;;9.77;4.68;;;;;;;18.78;69.28;99079.63;10137343;29;20056;-79
2023/10/13 19:15:25;;;;;;;13.50;5.68;;;;;;;18.68;71.97;99076.50;10164764;29;20098;-79
2023/10/13 19:20:30;;;;;;;14.43;5.43;;;;;;;18.51;72.72;99082.34;10156147;29;20048;-78
2023/10/13 19:25:36;;;;;;;15.90;5.45;;;;;;;17.76;78.59;99083.34;10143119;29;20561;-79
2023/10/13 19:30:43;;;;;;;13.45;5.68;;;;;;;17.81;78.01;99094.44;10149925;28;20048;-80
2023/10/13 19:35:45;;;;;;;14.23;4.68;;;;;;;17.82;78.99;99074.38;10139099;29;20693;-77
2023/10/13 19:40:48;;;;;;;16.83;5.50;;;;;;;17.39;80.87;99080.06;10119952;29;20048;-79
2023/10/13 19:45:52;;;;;;;13.50;6.75;;;;;;;17.57;80.98;99071.34;10147775;28;20130;-81
2023/10/13 19:50:55;;;;;;;16.83;6.55;;;;;;;17.84;80.07;99061.44;10149597;28;20052;-79
2023/10/13 19:55:58;;;;;;;14.85;6.05;;;;;;;17.48;81.78;99057.97;10139705;29;20055;-80
2023/10/13 20:01:08;;;;;;;17.52;7.00;;;;;;;17.36;82.32;99056.88;10132760;29;20080;-78
2023/10/13 20:06:14;;;;;;;18.17;6.88;;;;;;;17.68;81.65;99040.91;10161327;28;20060;-81
2023/10/13 20:11:18;;;;;;;11.52;5.38;;;;;;;17.53;80.48;99032.09;10149994;28;20437;-78
2023/10/13 20:16:23;;;;;;;9.35;4.97;;;;;;;17.23;80.57;99079.31;10126932;28;20059;-78
2023/10/13 20:21:28;;;;;;;14.48;6.93;;;;;;;17.02;83.02;99027.81;10130381;29;20063;-79
2023/10/13 20:26:38;;;;;;;18.27;6.88;;;;;;;17.06;84.08;99001.13;10124560;29;20044;-77
2023/10/13 20:31:44;;;;;;;19.50;6.90;;;;;;;17.09;84.44;98990.72;10129840;29;20148;-77
2023/10/13 20:36:47;;;;;;;13.73;6.72;;;;;;;17.25;83.05;98984.13;10142057;29;20072;-78
2023/10/13 20:41:51;;;;;;;16.27;6.40;;;;;;;17.52;81.84;98987.81;10125943;29;20259;-78
2023/10/13 20:46:56;;;;;;;18.90;6.70;;;;;;;17.68;79.63;98981.19;10141087;29;20051;-79
2023/10/13 20:52:04;;;;;;;21.08;7.05;;;;;;;18.03;79.13;98987.34;10141261;29;20067;-78
2023/10/13 20:57:07;;;;;;;12.57;6.55;;;;;;;18.01;79.17;98997.56;10146021;29;20063;-79
2023/10/13 21:02:14;;;;;;;13.68;6.90;;;;;;;16.78;88.98;99011.00;10138457;29;20276;-78
2023/10/13 21:07:18;;;;;;;13.00;5.57;;;;;;;15.59;100.00;99018.78;10132451;29;20424;-78
2023/10/13 21:12:21;;;;;;;17.83;7.68;;;;;;;15.56;100.00;99018.34;10132362;29;20058;-78
2023/10/13 21:17:25;;;;;;;17.58;7.25;;;;;;;15.47;100.00;99001.38;10132568;29;20059;-78
2023/10/13 21:22:28;;;;;;;27.35;11.32;;;;;;;15.36;100.00;98989.16;10158365;29;21172;-79
2023/10/13 21:27:31;;;;;;;25.55;9.93;;;;;;;15.00;100.00;98999.88;10139203;29;20893;-78
2023/10/13 21:32:35;;;;;;;18.23;9.40;;;;;;;14.92;100.00;98949.47;10142650;29;21100;-78
2023/10/13 21:37:39;;;;;;;26.13;11.88;;;;;;;15.20;100.00;98951.47;10134008;29;20166;-76
2023/10/13 21:42:44;;;;;;;19.20;10.15;;;;;;;15.03;100.00;98950.84;10138293;29;20508;-77
2023/10/13 21:47:48;;;;;;;22.98;12.90;;;;;;;15.44;100.00;98932.25;10134299;29;20656;-76
2023/10/13 21:52:52;;;;;;;27.42;11.10;;;;;;;15.45;100.00;98904.16;10130898;29;20048;-78
2023/10/13 21:57:55;;;;;;;27.27;11.10;;;;;;;15.35;100.00;98894.66;10126752;29;20055;-78
2023/10/13 22:03:00;;;;;;;20.25;9.88;;;;;;;15.40;100.00;98884.09;10125439;29;20056;-77
2023/10/13 22:08:04;;;;;;;19.30;10.80;;;;;;;15.41;100.00;98908.28;10140717;29;21210;-77
2023/10/13 22:13:07;;;;;;;20.75;9.55;;;;;;;15.22;100.00;98874.53;10137544;29;20055;-78
2023/10/13 22:18:13;;;;;;;14.23;7.40;;;;;;;14.95;100.00;98862.56;10136333;29;20051;-77
2023/10/13 22:23:16;;;;;;;13.85;7.82;;;;;;;14.98;100.00;98864.88;10130149;29;20166;-78
2023/10/13 22:28:19;;;;;;;20.77;9.52;;;;;;;15.26;100.00;98850.63;10120294;29;20059;-78
2023/10/13 22:33:24;;;;;;;15.45;9.75;;;;;;;15.35;100.00;98844.09;10137221;29;20635;-77
2023/10/13 22:38:29;;;;;;;21.58;8.00;;;;;;;15.11;100.00;98825.50;10135227;29;20082;-77
2023/10/13 22:43:32;;;;;;;18.70;8.82;;;;;;;15.40;100.00;98835.41;10131513;29;20534;-77
2023/10/13 22:48:37;;;;;;;18.10;8.93;;;;;;;15.49;100.00;98828.81;10119070;29;20052;-77
2023/10/13 22:53:41;;;;;;;14.85;7.50;;;;;;;15.41;100.00;98824.41;10122550;29;20503;-76
2023/10/13 22:58:44;;;;;;;15.13;7.63;;;;;;;15.61;100.00;98800.22;10120239;29;20048;-78
2023/10/13 23:03:55;;;;;;;22.27;8.40;;;;;;;15.86;100.00;98806.03;10124455;29;20052;-76
2023/10/13 23:09:10;;;;;;;21.50;7.88;;;;;;;15.78;100.00;98789.94;10118335;29;20052;-77
2023/10/13 23:14:13;;;;;;;15.55;7.45;;;;;;;15.97;100.00;98780.28;10133503;29;20054;-78
2023/10/13 23:19:18;;;;;;;18.30;8.13;;;;;;;15.95;100.00;98766.09;10132978;29;20120;-79
2023/10/13 23:24:23;;;;;;;14.00;5.78;;;;;;;16.08;100.00;98768.06;10142075;29;20656;-78
2023/10/13 23:29:26;;;;;;;17.70;7.18;;;;;;;16.19;98.88;98767.50;10125110;29;20094;-78
2023/10/13 23:34:31;;;;;;;18.30;9.30;;;;;;;16.48;96.62;98743.91;10129146;29;20526;-77
2023/10/13 23:39:34;;;;;;;18.02;8.52;;;;;;;16.45;96.84;98745.16;10139044;29;20056;-77
2023/10/13 23:44:37;;;;;;;21.15;9.35;;;;;;;16.52;96.54;98731.63;10117745;29;20154;-79
2023/10/13 23:49:54;;;;;;;13.50;7.47;;;;;;;16.46;93.63;98757.69;10127526;29;20513;-78
2023/10/13 23:55:04;;;;;;;30.55;9.73;;;;;;;16.79;92.21;98721.72;10128901;29;20393;-77
